CYP342 LCLK-LIMC
Flight info
| Callsign | CYP342 |
|---|---|
| Flight time | N/A |
| Altitude | 38000 |
| Route | PHA M31 GENOS DCT TOSKA UM978 VAXOS DCT LINRO DCT KOPAR DCT RIGRO UN133 GIKAS DCT DISOR DCT LONTA UL608 DOLEV DCT BUNEX DCT NILKU DCT XELMI DCT VRANA DCT SIRMI DCT DIGOT DCT ULPIN DCT VIC L615 PEXUG |
| Aircraft | A320/M-SDE3FGHIRWY/LB1 |
Departure
| Time | 2026-05-06 15:03 |
|---|---|
| Airport | Larnaca International Airport (LCLK) |
Arrival
| Time | N/A |
|---|---|
| Airport | Milan Malpensa International Airport (LIMC) |
| Time | Latitude | Longitude | Altitude | Speed | Heading |
|---|---|---|---|---|---|
| 2026-05-06 14:24 | 34.86805 | 33.61071 | 21 ft | 0 kts | 5° |
| 2026-05-06 14:49 | 34.86783 | 33.61068 | 24 ft | 4 kts | 5° |
| 2026-05-06 14:49 | 34.86757 | 33.61066 | 22 ft | 4 kts | 5° |
| 2026-05-06 14:50 | 34.86733 | 33.61063 | 25 ft | 1 kts | 5° |
| 2026-05-06 14:50 | 34.86709 | 33.61058 | 23 ft | 4 kts | 18° |
| 2026-05-06 14:50 | 34.86684 | 33.61045 | 22 ft | 4 kts | 35° |
| 2026-05-06 14:50 | 34.86664 | 33.61024 | 24 ft | 4 kts | 45° |
| 2026-05-06 14:51 | 34.86648 | 33.61004 | 23 ft | 4 kts | 45° |
| 2026-05-06 14:51 | 34.86643 | 33.60999 | 23 ft | 0 kts | 45° |
| 2026-05-06 14:54 | 34.86646 | 33.61002 | 23 ft | 1 kts | 45° |
| 2026-05-06 14:54 | 34.86653 | 33.61011 | 22 ft | 2 kts | 45° |
| 2026-05-06 14:54 | 34.86672 | 33.61033 | 21 ft | 7 kts | 45° |
| 2026-05-06 14:55 | 34.86711 | 33.61080 | 21 ft | 8 kts | 45° |
| 2026-05-06 14:55 | 34.86762 | 33.61143 | 19 ft | 14 kts | 45° |
| 2026-05-06 14:55 | 34.86838 | 33.61238 | 17 ft | 16 kts | 45° |
| 2026-05-06 14:55 | 34.86912 | 33.61330 | 17 ft | 14 kts | 45° |
| 2026-05-06 14:56 | 34.86980 | 33.61411 | 17 ft | 14 kts | 44° |
| 2026-05-06 14:56 | 34.87045 | 33.61489 | 17 ft | 12 kts | 45° |
| 2026-05-06 14:56 | 34.87095 | 33.61556 | 18 ft | 8 kts | 63° |
| 2026-05-06 14:56 | 34.87083 | 33.61602 | 21 ft | 5 kts | 131° |
| 2026-05-06 14:57 | 34.87072 | 33.61655 | 21 ft | 9 kts | 72° |
| 2026-05-06 14:57 | 34.87127 | 33.61731 | 22 ft | 15 kts | 45° |
| 2026-05-06 14:57 | 34.87222 | 33.61845 | 21 ft | 22 kts | 45° |
| 2026-05-06 14:57 | 34.87337 | 33.61986 | 22 ft | 24 kts | 45° |
| 2026-05-06 14:58 | 34.87463 | 33.62136 | 19 ft | 26 kts | 45° |
| 2026-05-06 14:58 | 34.87594 | 33.62301 | 16 ft | 28 kts | 46° |
| 2026-05-06 14:58 | 34.87726 | 33.62463 | 18 ft | 20 kts | 45° |
| 2026-05-06 14:58 | 34.87820 | 33.62577 | 19 ft | 18 kts | 44° |
| 2026-05-06 14:59 | 34.87876 | 33.62644 | 21 ft | 16 kts | 45° |
| 2026-05-06 14:59 | 34.87971 | 33.62760 | 20 ft | 14 kts | 45° |
| 2026-05-06 14:59 | 34.88043 | 33.62848 | 20 ft | 15 kts | 45° |
| 2026-05-06 14:59 | 34.88091 | 33.62907 | 21 ft | 15 kts | 45° |
| 2026-05-06 15:00 | 34.88172 | 33.63007 | 20 ft | 19 kts | 45° |
| 2026-05-06 15:00 | 34.88265 | 33.63120 | 18 ft | 18 kts | 45° |
| 2026-05-06 15:00 | 34.88350 | 33.63221 | 17 ft | 17 kts | 44° |
| 2026-05-06 15:00 | 34.88429 | 33.63318 | 17 ft | 15 kts | 48° |
| 2026-05-06 15:01 | 34.88436 | 33.63385 | 19 ft | 6 kts | 116° |
| 2026-05-06 15:01 | 34.88401 | 33.63435 | 19 ft | 10 kts | 133° |
| 2026-05-06 15:01 | 34.88338 | 33.63505 | 18 ft | 14 kts | 150° |
| 2026-05-06 15:01 | 34.88263 | 33.63476 | 16 ft | 10 kts | 224° |
| 2026-05-06 15:02 | 34.88250 | 33.63461 | 17 ft | 0 kts | 225° |
| 2026-05-06 15:02 | 34.88237 | 33.63445 | 16 ft | 11 kts | 225° |
| 2026-05-06 15:02 | 34.88087 | 33.63263 | 16 ft | 63 kts | 225° |
| 2026-05-06 15:03 | 34.87623 | 33.62695 | 20 ft | 124 kts | 225° |
| 2026-05-06 15:03 | 34.86901 | 33.61812 | 169 ft | 157 kts | 225° |
| 2026-05-06 15:03 | 34.86157 | 33.60879 | 952 ft | 152 kts | 225° |
| 2026-05-06 15:03 | 34.85437 | 33.59952 | 1682 ft | 150 kts | 226° |
| 2026-05-06 15:04 | 34.84693 | 33.58999 | 2075 ft | 167 kts | 227° |
| 2026-05-06 15:04 | 34.83848 | 33.57907 | 2414 ft | 187 kts | 228° |
| 2026-05-06 15:04 | 34.82911 | 33.56700 | 2776 ft | 206 kts | 228° |
| 2026-05-06 15:04 | 34.81853 | 33.55349 | 3026 ft | 236 kts | 226° |
| 2026-05-06 15:05 | 34.80681 | 33.53845 | 3459 ft | 259 kts | 228° |
| 2026-05-06 15:05 | 34.79429 | 33.52215 | 4248 ft | 267 kts | 228° |
| 2026-05-06 15:05 | 34.78152 | 33.50555 | 5150 ft | 271 kts | 228° |
| 2026-05-06 15:05 | 34.76846 | 33.48865 | 6029 ft | 276 kts | 229° |
| 2026-05-06 15:06 | 34.75514 | 33.47149 | 6897 ft | 281 kts | 229° |
| 2026-05-06 15:06 | 34.74161 | 33.45422 | 7761 ft | 284 kts | 229° |
| 2026-05-06 15:06 | 34.72795 | 33.43683 | 8675 ft | 285 kts | 229° |
| 2026-05-06 15:06 | 34.71420 | 33.41931 | 9580 ft | 288 kts | 229° |
| 2026-05-06 15:07 | 34.70036 | 33.40149 | 10319 ft | 295 kts | 232° |
| 2026-05-06 15:07 | 34.68864 | 33.38004 | 10573 ft | 316 kts | 247° |
| 2026-05-06 15:07 | 34.68187 | 33.35416 | 11005 ft | 327 kts | 262° |
| 2026-05-06 15:07 | 34.68097 | 33.32647 | 11708 ft | 330 kts | 275° |
| 2026-05-06 15:08 | 34.68221 | 33.29847 | 12466 ft | 334 kts | 274° |
| 2026-05-06 15:08 | 34.68338 | 33.27015 | 13201 ft | 338 kts | 274° |
| 2026-05-06 15:08 | 34.68453 | 33.24148 | 13934 ft | 342 kts | 274° |
| 2026-05-06 15:08 | 34.68564 | 33.21246 | 14594 ft | 345 kts | 274° |
| 2026-05-06 15:09 | 34.68675 | 33.18329 | 15288 ft | 347 kts | 274° |
| 2026-05-06 15:09 | 34.68790 | 33.15397 | 15978 ft | 348 kts | 274° |
| 2026-05-06 15:09 | 34.68905 | 33.12496 | 16731 ft | 348 kts | 274° |
| 2026-05-06 15:09 | 34.69021 | 33.09558 | 17464 ft | 348 kts | 274° |
| 2026-05-06 15:10 | 34.69135 | 33.06612 | 18159 ft | 350 kts | 274° |
| 2026-05-06 15:10 | 34.69249 | 33.03655 | 18778 ft | 351 kts | 274° |
| 2026-05-06 15:10 | 34.69364 | 33.00682 | 19380 ft | 353 kts | 274° |
| 2026-05-06 15:10 | 34.69477 | 32.97697 | 19981 ft | 355 kts | 274° |
| 2026-05-06 15:11 | 34.69591 | 32.94697 | 20581 ft | 356 kts | 274° |
| 2026-05-06 15:11 | 34.69705 | 32.91685 | 21175 ft | 358 kts | 274° |
| 2026-05-06 15:11 | 34.69819 | 32.88656 | 21762 ft | 360 kts | 275° |
| 2026-05-06 15:11 | 34.69933 | 32.85609 | 22333 ft | 362 kts | 275° |
| 2026-05-06 15:12 | 34.70046 | 32.82546 | 22895 ft | 364 kts | 274° |
| 2026-05-06 15:12 | 34.70157 | 32.79465 | 23469 ft | 366 kts | 274° |
| 2026-05-06 15:12 | 34.70266 | 32.76368 | 23947 ft | 368 kts | 274° |
| 2026-05-06 15:12 | 34.70377 | 32.73256 | 24382 ft | 370 kts | 275° |
| 2026-05-06 15:13 | 34.70492 | 32.70127 | 24810 ft | 372 kts | 275° |
| 2026-05-06 15:13 | 34.70608 | 32.66978 | 25222 ft | 374 kts | 275° |
| 2026-05-06 15:13 | 34.70726 | 32.63815 | 25622 ft | 376 kts | 275° |
| 2026-05-06 15:13 | 34.70839 | 32.60631 | 25991 ft | 378 kts | 275° |
| 2026-05-06 15:14 | 34.70948 | 32.57426 | 26361 ft | 381 kts | 274° |
| 2026-05-06 15:14 | 34.71054 | 32.54198 | 26743 ft | 383 kts | 274° |
| 2026-05-06 15:14 | 34.71153 | 32.50951 | 27120 ft | 386 kts | 272° |
| 2026-05-06 15:14 | 34.71024 | 32.47680 | 27486 ft | 389 kts | 269° |
| 2026-05-06 15:15 | 34.70853 | 32.44389 | 27851 ft | 391 kts | 269° |
| 2026-05-06 15:15 | 34.70685 | 32.41084 | 28213 ft | 393 kts | 269° |
| 2026-05-06 15:15 | 34.70514 | 32.37763 | 28569 ft | 395 kts | 269° |
| 2026-05-06 15:15 | 34.70339 | 32.34427 | 28915 ft | 396 kts | 269° |
| 2026-05-06 15:16 | 34.70160 | 32.31081 | 29252 ft | 398 kts | 269° |
| 2026-05-06 15:16 | 34.69977 | 32.27722 | 29573 ft | 400 kts | 269° |
| 2026-05-06 15:16 | 34.69792 | 32.24344 | 29889 ft | 401 kts | 269° |
| 2026-05-06 15:16 | 34.69607 | 32.20954 | 30187 ft | 403 kts | 269° |
| 2026-05-06 15:17 | 34.69419 | 32.17549 | 30440 ft | 405 kts | 269° |
| 2026-05-06 15:17 | 34.69232 | 32.14131 | 30691 ft | 406 kts | 269° |
| 2026-05-06 15:17 | 34.69044 | 32.10706 | 30935 ft | 407 kts | 269° |
| 2026-05-06 15:17 | 34.68853 | 32.07267 | 31171 ft | 408 kts | 269° |
| 2026-05-06 15:18 | 34.68663 | 32.03826 | 31454 ft | 408 kts | 269° |
| 2026-05-06 15:18 | 34.68472 | 32.00399 | 31803 ft | 406 kts | 269° |
| 2026-05-06 15:18 | 34.68278 | 31.96985 | 32158 ft | 404 kts | 269° |
| 2026-05-06 15:18 | 34.68084 | 31.93584 | 32505 ft | 402 kts | 269° |
| 2026-05-06 15:19 | 34.68025 | 31.90207 | 32848 ft | 398 kts | 276° |
| 2026-05-06 15:19 | 34.68396 | 31.86894 | 33184 ft | 394 kts | 283° |
| 2026-05-06 15:19 | 34.68917 | 31.83674 | 33519 ft | 393 kts | 283° |
| 2026-05-06 15:19 | 34.69439 | 31.80421 | 33863 ft | 392 kts | 282° |
| 2026-05-06 15:20 | 34.69962 | 31.77136 | 34195 ft | 390 kts | 283° |
| 2026-05-06 15:20 | 34.70468 | 31.73948 | 34461 ft | 389 kts | 283° |
| 2026-05-06 15:20 | 34.70988 | 31.70675 | 34702 ft | 390 kts | 283° |
| 2026-05-06 15:20 | 34.71494 | 31.67483 | 34916 ft | 390 kts | 282° |
| 2026-05-06 15:21 | 34.72003 | 31.64243 | 35136 ft | 391 kts | 282° |
| 2026-05-06 15:21 | 34.72512 | 31.60998 | 35336 ft | 391 kts | 282° |
| 2026-05-06 15:21 | 34.73020 | 31.57747 | 35534 ft | 392 kts | 282° |
| 2026-05-06 15:21 | 34.73526 | 31.54490 | 35731 ft | 392 kts | 282° |
| 2026-05-06 15:22 | 34.74031 | 31.51232 | 35917 ft | 393 kts | 282° |
| 2026-05-06 15:22 | 34.74539 | 31.47973 | 36107 ft | 392 kts | 282° |
| 2026-05-06 15:22 | 34.75048 | 31.44714 | 36314 ft | 392 kts | 282° |
| 2026-05-06 15:22 | 34.75554 | 31.41455 | 36498 ft | 393 kts | 282° |
| 2026-05-06 15:23 | 34.76063 | 31.38191 | 36674 ft | 393 kts | 282° |
| 2026-05-06 15:23 | 34.76573 | 31.34921 | 36842 ft | 394 kts | 282° |
| 2026-05-06 15:23 | 34.77082 | 31.31650 | 37005 ft | 394 kts | 282° |
| 2026-05-06 15:23 | 34.77589 | 31.28369 | 37166 ft | 395 kts | 282° |
| 2026-05-06 15:24 | 34.78095 | 31.25085 | 37324 ft | 395 kts | 282° |
| 2026-05-06 15:24 | 34.78602 | 31.21798 | 37501 ft | 396 kts | 282° |
| 2026-05-06 15:24 | 34.79107 | 31.18507 | 37649 ft | 396 kts | 282° |
| 2026-05-06 15:24 | 34.79611 | 31.15212 | 37800 ft | 396 kts | 282° |
| 2026-05-06 15:25 | 34.80116 | 31.11915 | 37968 ft | 396 kts | 282° |